This is the latest recevied weather packets stored in our database for station/object WW5JC. If no packets are shown the sender has not sent any weather packets the latest 10 day(s).
| Time | Temp. | Humidity | Pressure | Rain* | Wind** | Luminosity | Snow |
|---|---|---|---|---|---|---|---|
| 1788618021 | 31.11° C | 66% | 1016.6 hPa | 0 mm | - | 229 W/m² | - |
| 1788617721 | 30.56° C | 69% | 1016.7 hPa | 0 mm | - | 215 W/m² | - |
| 1788617418 | 30.56° C | 69% | 1016.7 hPa | 0 mm | - | 204 W/m² | - |
| 1788617112 | 30.56° C | 70% | 1016.6 hPa | 0 mm | - | 188 W/m² | - |
| 1788616811 | 29.44° C | 71% | 1016.6 hPa | 0 mm | - | 75 W/m² | - |
| 1788616507 | 30° C | 71% | 1016.5 hPa | 0 mm | - | 53 W/m² | - |
| 1788616202 | 30.56° C | 70% | 1016.6 hPa | 0 mm | - | 60 W/m² | - |
| 1788615901 | 30° C | 71% | 1016.6 hPa | 0 mm | - | 142 W/m² | - |
| 1788615601 | 29.44° C | 73% | 1016.6 hPa | 0 mm | - | 134 W/m² | - |
| 1788615296 | 28.89° C | 76% | 1016.5 hPa | 0 mm | - | 127 W/m² | - |
| 1788614990 | 29.44° C | 73% | 1016.3 hPa | 0 mm | - | 118 W/m² | - |
| 1788614685 | 28.89° C | 75% | 1016.5 hPa | 0 mm | - | 99 W/m² | - |
| 1788614385 | 27.78° C | 79% | 1016.5 hPa | 0 mm | - | 89 W/m² | - |
| 1788614081 | 27.78° C | 79% | 1016.3 hPa | 0 mm | - | 79 W/m² | - |
| 1788613776 | 26.67° C | 81% | 1016.5 hPa | 0 mm | - | 71 W/m² | - |
| 1788613475 | 26.67° C | 81% | 1016.4 hPa | 0 mm | - | 64 W/m² | - |
| 1788613175 | 26.11° C | 83% | 1016.4 hPa | 0 mm | - | 56 W/m² | - |
| 1788612870 | 25.56° C | 84% | 1016.3 hPa | 0 mm | - | 49 W/m² | - |
| 1788612565 | 25° C | 86% | 1016.1 hPa | 0 mm | - | 43 W/m² | - |
| 1788612262 | 24.44° C | 88% | 1016.3 hPa | 0 mm | - | 36 W/m² | - |
| 1788611962 | 23.89° C | 90% | 1016 hPa | 0 mm | - | 26 W/m² | - |
| 1788611659 | 23.89° C | 90% | 1016.1 hPa | 0 mm | - | 23 W/m² | - |
| 1788611354 | 23.33° C | 91% | 1016.1 hPa | 0 mm | - | 20 W/m² | - |
| 1788611053 | 23.33° C | 91% | 1016 hPa | 0 mm | - | 17 W/m² | - |
| 1788610749 | 23.33° C | 91% | 1016 hPa | 0 mm | - | 14 W/m² | - |
* Rain latest hour (hover to see other rain measurements)
** Current wind speed in m/s (hover to see current wind gust speed)